Time;durP1;ratioP1;P1;durP2;ratioP2;P2;SDS_P1;SDS_P2;PMS_P1;PMS_P2;Temp;Humidity;BMP_temperature;BMP_pressure;BME280_temperature;BME280_humidity;BME280_pressure;Samples;Min_cycle;Max_cycle;Signal;HPM_P1;HPM_P2
2021/10/28 00:13:15;;;;;;;31.10;15.02;;;;;;;8.11;91.76;101847.66;5042257;28;20029;-79
2021/10/28 00:15:43;;;;;;;36.35;15.77;;;;;;;8.07;92.34;101851.41;5045429;28;20029;-78
2021/10/28 00:18:16;;;;;;;29.45;14.77;;;;;;;8.05;92.47;101846.34;5060637;28;20118;-75
2021/10/28 00:20:42;;;;;;;34.72;15.18;;;;;;;8.01;92.97;101857.03;5069779;28;20032;-76
2021/10/28 00:23:09;;;;;;;46.40;15.70;;;;;;;7.97;93.04;101853.84;5044089;28;20397;-78
2021/10/28 00:25:38;;;;;;;30.52;15.32;;;;;;;8.07;93.06;101841.06;5061046;28;20043;-77
2021/10/28 00:28:05;;;;;;;28.65;14.38;;;;;;;8.02;92.71;101859.47;5022359;28;20036;-76
2021/10/28 00:30:31;;;;;;;33.50;13.60;;;;;;;7.98;93.12;101843.38;5041346;28;20039;-76
2021/10/28 00:32:56;;;;;;;32.70;14.05;;;;;;;7.97;93.09;101846.91;5062106;28;20036;-76
2021/10/28 00:35:22;;;;;;;31.73;13.70;;;;;;;7.98;92.85;101853.72;5043392;28;20053;-77
2021/10/28 00:37:47;;;;;;;27.38;13.43;;;;;;;8.01;93.02;101842.34;5046738;28;20044;-76
2021/10/28 00:40:13;;;;;;;30.58;13.63;;;;;;;8.04;92.66;101842.09;5059301;28;20119;-76
2021/10/28 00:42:39;;;;;;;29.08;13.40;;;;;;;7.94;93.02;101841.16;5040845;28;20067;-76
2021/10/28 00:45:09;;;;;;;33.92;13.95;;;;;;;8.02;92.81;101840.56;5059509;28;20087;-75
2021/10/28 00:47:36;;;;;;;27.60;13.10;;;;;;;7.96;93.01;101839.28;5058271;28;20392;-77
2021/10/28 00:50:03;;;;;;;28.50;13.60;;;;;;;7.99;92.91;101837.28;5043683;28;20055;-79
2021/10/28 00:52:29;;;;;;;33.95;14.63;;;;;;;7.97;92.83;101838.34;5028248;28;20035;-76
2021/10/28 00:54:54;;;;;;;32.75;13.95;;;;;;;7.88;93.23;101837.25;5030518;28;20036;-76
2021/10/28 00:57:21;;;;;;;34.40;14.65;;;;;;;7.92;93.32;101830.94;5044790;28;20501;-77
2021/10/28 00:59:47;;;;;;;33.15;13.55;;;;;;;7.92;93.58;101832.69;5066394;28;20037;-77
2021/10/28 01:02:13;;;;;;;27.10;13.38;;;;;;;7.97;93.25;101830.59;5046913;28;20040;-77
2021/10/28 01:04:39;;;;;;;32.00;14.52;;;;;;;7.93;93.26;101837.75;5060372;28;20217;-78
2021/10/28 01:07:05;;;;;;;30.58;12.85;;;;;;;7.95;93.41;101829.91;5047612;28;20063;-77
2021/10/28 01:09:31;;;;;;;34.13;13.32;;;;;;;7.95;93.16;101830.72;5042308;28;20032;-79
2021/10/28 01:11:58;;;;;;;27.60;13.00;;;;;;;7.94;93.32;101834.22;5041723;28;20032;-80
2021/10/28 01:14:23;;;;;;;27.45;13.05;;;;;;;7.86;93.33;101838.31;5039188;28;20056;-76
2021/10/28 01:16:54;;;;;;;28.58;12.35;;;;;;;7.87;93.73;101819.28;5065657;28;20028;-77
2021/10/28 01:19:22;;;;;;;31.15;12.68;;;;;;;7.91;93.28;101825.88;5044610;28;20032;-78
2021/10/28 01:21:48;;;;;;;27.95;13.45;;;;;;;7.90;93.54;101822.47;5066845;28;20036;-78
2021/10/28 01:24:13;;;;;;;29.83;12.73;;;;;;;7.79;93.69;101815.50;5066326;28;20499;-77
2021/10/28 01:26:39;;;;;;;27.30;13.13;;;;;;;7.70;94.14;101817.94;5045084;28;20029;-75
2021/10/28 01:29:04;;;;;;;29.13;13.50;;;;;;;7.82;94.30;101816.22;5050527;28;20032;-76
2021/10/28 01:31:32;;;;;;;32.17;13.27;;;;;;;7.79;93.68;101814.69;5047262;28;20429;-76
2021/10/28 01:33:59;;;;;;;28.67;13.52;;;;;;;7.78;93.85;101820.81;5031857;28;20097;-79
2021/10/28 01:36:26;;;;;;;24.90;11.98;;;;;;;7.85;93.65;101814.22;5034615;28;20059;-77
2021/10/28 01:38:53;;;;;;;25.42;12.80;;;;;;;7.85;93.50;101811.66;5032643;28;20036;-79
2021/10/28 01:41:19;;;;;;;30.48;13.68;;;;;;;7.77;93.54;101824.31;5041898;28;20461;-76
2021/10/28 01:43:45;;;;;;;27.48;12.75;;;;;;;7.70;93.87;101817.94;5050995;28;20044;-77
2021/10/28 01:46:11;;;;;;;31.20;13.82;;;;;;;7.72;93.91;101818.66;5066789;28;20543;-78
2021/10/28 01:48:42;;;;;;;33.65;14.35;;;;;;;7.74;93.67;101819.38;5046438;28;20048;-79
2021/10/28 01:51:09;;;;;;;27.63;13.93;;;;;;;7.73;93.62;101812.56;5029962;28;20102;-81
2021/10/28 01:53:40;;;;;;;30.25;14.40;;;;;;;7.65;93.56;101818.28;5045958;28;20385;-76
2021/10/28 01:56:07;;;;;;;33.17;14.00;;;;;;;7.71;93.43;101798.94;5043219;28;20432;-78
2021/10/28 01:58:33;;;;;;;33.35;14.43;;;;;;;7.68;93.49;101797.41;5049029;28;20381;-79
2021/10/28 02:00:58;;;;;;;30.80;14.55;;;;;;;7.67;93.68;101793.19;5047482;28;20060;-78
2021/10/28 02:03:24;;;;;;;32.40;14.82;;;;;;;7.60;93.57;101803.13;5042777;28;20032;-76
2021/10/28 02:05:50;;;;;;;30.77;14.60;;;;;;;7.59;94.04;101806.66;5047128;28;20024;-79
2021/10/28 02:08:16;;;;;;;39.65;15.25;;;;;;;7.54;94.13;101805.34;5067834;28;20377;-79
2021/10/28 02:10:43;;;;;;;31.23;14.98;;;;;;;7.61;93.63;101801.38;5047737;28;20499;-79
2021/10/28 02:13:09;;;;;;;35.20;15.40;;;;;;;7.56;93.74;101798.31;5045471;28;20066;-77
2021/10/28 02:15:35;;;;;;;35.95;14.68;;;;;;;7.52;93.69;101796.91;5041801;28;20508;-76
2021/10/28 02:18:01;;;;;;;33.25;15.32;;;;;;;7.45;93.91;101798.28;5062620;28;20036;-76
2021/10/28 02:20:27;;;;;;;31.13;14.68;;;;;;;7.52;93.75;101795.13;5066423;28;20024;-78
2021/10/28 02:22:52;;;;;;;35.67;15.48;;;;;;;7.52;93.57;101792.53;5048232;28;20052;-76
2021/10/28 02:25:18;;;;;;;28.50;14.43;;;;;;;7.55;93.44;101792.34;5048573;28;20524;-79
2021/10/28 02:27:52;;;;;;;33.75;15.25;;;;;;;7.48;93.71;101792.88;5047374;28;20039;-77
2021/10/28 02:30:20;;;;;;;36.30;14.68;;;;;;;7.41;94.06;101790.75;5047124;28;20024;-76
2021/10/28 02:32:46;;;;;;;33.58;15.63;;;;;;;7.35;94.08;101788.59;5064858;28;20119;-77
2021/10/28 02:35:11;;;;;;;34.13;14.45;;;;;;;7.43;93.79;101780.31;5046681;28;20046;-77
2021/10/28 02:37:37;;;;;;;30.38;14.10;;;;;;;7.39;93.59;101773.72;5036025;28;20047;-76
2021/10/28 02:40:05;;;;;;;33.28;14.93;;;;;;;7.39;93.97;101774.53;5031650;28;20039;-77
2021/10/28 02:42:32;;;;;;;36.17;15.07;;;;;;;7.45;93.67;101768.13;5044710;28;20052;-78
2021/10/28 02:44:57;;;;;;;34.95;15.30;;;;;;;7.48;93.58;101772.22;5068999;28;20036;-76
2021/10/28 02:47:24;;;;;;;37.50;17.08;;;;;;;7.44;93.24;101770.81;5065795;28;20020;-77
2021/10/28 02:49:50;;;;;;;33.67;17.33;;;;;;;7.39;93.12;101769.38;5043046;28;20453;-79
2021/10/28 02:52:15;;;;;;;37.40;18.35;;;;;;;7.28;93.72;101765.94;5046172;28;20029;-78
2021/10/28 02:54:41;;;;;;;41.10;18.90;;;;;;;7.26;93.52;101757.50;5051157;28;20040;-79
2021/10/28 02:57:07;;;;;;;40.50;18.48;;;;;;;7.25;93.92;101753.25;5042491;28;20405;-76
2021/10/28 02:59:33;;;;;;;44.97;17.83;;;;;;;7.29;93.81;101752.09;5046750;28;20535;-79
2021/10/28 03:01:59;;;;;;;37.35;18.17;;;;;;;7.29;93.64;101750.34;5049646;28;20082;-77
2021/10/28 03:04:25;;;;;;;37.35;17.38;;;;;;;7.24;93.85;101744.69;5062278;28;20029;-77
2021/10/28 03:06:52;;;;;;;43.08;18.75;;;;;;;7.31;93.90;101745.06;5044089;28;20037;-77
2021/10/28 03:09:24;;;;;;;42.25;17.83;;;;;;;7.33;93.72;101745.81;5052066;28;20152;-80
2021/10/28 03:11:53;;;;;;;35.17;17.30;;;;;;;7.23;94.08;101748.19;5049101;28;20040;-77
2021/10/28 03:14:23;;;;;;;35.50;17.55;;;;;;;7.25;94.18;101748.09;5049295;28;20036;-78
2021/10/28 03:19:48;;;;;;;36.33;16.80;;;;;;;7.27;93.97;101744.50;5019698;28;20045;-76
2021/10/28 03:27:39;;;;;;;38.95;17.45;;;;;;;7.19;94.86;101733.88;5059579;28;20292;-77
2021/10/28 03:30:07;;;;;;;45.53;18.90;;;;;;;7.18;94.92;101725.31;5050717;28;20109;-76
2021/10/28 03:32:34;;;;;;;39.88;17.80;;;;;;;7.26;95.07;101726.53;5070207;28;20078;-78
2021/10/28 03:35:00;;;;;;;38.65;17.38;;;;;;;7.18;95.15;101720.16;5034245;28;20017;-76
2021/10/28 03:37:37;;;;;;;43.78;19.50;;;;;;;7.18;95.38;101725.31;5052798;28;20373;-76
2021/10/28 03:41:10;;;;;;;42.17;18.17;;;;;;;7.15;95.74;101719.56;5067530;28;20044;-76
2021/10/28 03:58:55;;;;;;;51.45;21.67;;;;;;;7.08;95.57;101702.88;5074086;28;20404;-76
2021/10/28 04:07:12;;;;;;;63.17;22.73;;;;;;;7.05;96.60;101709.09;5069152;28;20020;-79
2021/10/28 04:20:49;;;;;;;72.40;24.25;;;;;;;7.05;97.83;101696.19;5046970;28;20049;-77
2021/10/28 04:31:19;;;;;;;66.40;24.52;;;;;;;6.98;98.96;101689.84;5042927;28;20459;-76
2021/10/28 04:33:45;;;;;;;69.45;24.65;;;;;;;7.00;99.09;101693.13;5066866;28;20036;-78
2021/10/28 04:36:11;;;;;;;75.53;27.40;;;;;;;7.13;98.83;101687.91;5040614;28;20033;-78
2021/10/28 04:38:37;;;;;;;69.60;25.52;;;;;;;7.09;98.59;101689.88;5048369;28;20032;-78
2021/10/28 04:41:03;;;;;;;74.57;25.95;;;;;;;7.09;98.67;101689.88;5036300;28;20106;-76
2021/10/28 04:43:28;;;;;;;78.47;26.85;;;;;;;7.03;99.01;101682.59;5061447;28;20097;-76
2021/10/28 04:45:54;;;;;;;74.60;25.95;;;;;;;6.99;99.53;101676.84;5028302;28;20071;-76
2021/10/28 04:48:19;;;;;;;87.80;27.80;;;;;;;7.08;99.50;101687.41;5050424;28;20028;-79
2021/10/28 04:50:44;;;;;;;85.00;28.23;;;;;;;7.22;99.71;101676.91;5046117;28;20028;-79
2021/10/28 04:53:11;;;;;;;87.07;27.90;;;;;;;7.25;99.64;101679.25;5042856;28;20151;-76
2021/10/28 04:55:36;;;;;;;77.28;27.92;;;;;;;7.22;99.36;101679.50;5046252;28;20393;-76
2021/10/28 04:58:04;;;;;;;88.82;28.63;;;;;;;7.27;99.47;101673.97;5032516;28;20028;-76
2021/10/28 05:00:30;;;;;;;81.60;26.80;;;;;;;7.25;99.53;101674.09;5045011;28;20123;-77
2021/10/28 05:02:55;;;;;;;86.78;29.13;;;;;;;7.30;99.54;101671.19;5067787;28;20028;-76
2021/10/28 05:05:21;;;;;;;82.07;29.10;;;;;;;7.38;99.73;101669.69;5049126;28;20377;-78
2021/10/28 05:07:47;;;;;;;92.30;28.80;;;;;;;7.37;99.80;101665.47;5047899;28;20392;-78
2021/10/28 05:10:13;;;;;;;91.70;30.63;;;;;;;7.39;99.56;101663.59;5056176;28;20033;-80
2021/10/28 05:12:38;;;;;;;102.80;30.38;;;;;;;7.34;99.92;101659.69;5019555;28;20688;-77
2021/10/28 05:15:04;;;;;;;102.00;32.25;;;;;;;7.51;100.00;101658.44;5064013;28;20252;-80
2021/10/28 05:17:30;;;;;;;121.05;33.80;;;;;;;7.49;100.00;101662.91;5045312;28;20033;-77
2021/10/28 05:19:55;;;;;;;111.93;33.33;;;;;;;7.39;100.00;101665.34;5052066;28;20024;-79
2021/10/28 05:22:21;;;;;;;110.50;32.15;;;;;;;7.42;100.00;101667.69;5048464;28;20029;-78
2021/10/28 05:24:47;;;;;;;130.60;34.65;;;;;;;7.44;100.00;101663.25;5052312;28;20480;-78
2021/10/28 05:27:12;;;;;;;107.00;33.35;;;;;;;7.49;100.00;101670.66;5050678;28;20020;-76
2021/10/28 05:29:37;;;;;;;108.70;33.05;;;;;;;7.60;100.00;101665.50;5048147;28;20036;-77
2021/10/28 05:32:03;;;;;;;104.32;31.83;;;;;;;7.57;100.00;101668.31;5067961;28;20471;-78
2021/10/28 05:34:29;;;;;;;116.03;32.58;;;;;;;7.54;100.00;101659.03;5031817;28;20473;-77
2021/10/28 05:36:55;;;;;;;116.32;32.10;;;;;;;7.61;100.00;101654.25;5048734;28;20048;-78
2021/10/28 05:39:20;;;;;;;104.18;32.28;;;;;;;7.60;100.00;101656.00;5027304;28;20081;-78
2021/10/28 05:41:47;;;;;;;100.15;32.42;;;;;;;7.66;100.00;101646.16;5049848;28;20408;-77
2021/10/28 05:44:13;;;;;;;106.63;31.98;;;;;;;7.63;100.00;101639.47;5043637;28;20055;-78
2021/10/28 05:46:39;;;;;;;93.15;30.25;;;;;;;7.63;100.00;101631.72;5052543;28;20086;-79
2021/10/28 05:49:04;;;;;;;99.82;32.88;;;;;;;7.69;100.00;101635.59;5040378;28;20044;-77
2021/10/28 05:51:30;;;;;;;106.68;32.67;;;;;;;7.73;100.00;101639.59;5060847;28;20036;-77
2021/10/28 05:53:55;;;;;;;108.68;31.70;;;;;;;7.69;100.00;101633.03;5049497;28;20033;-78
2021/10/28 05:56:21;;;;;;;95.35;29.98;;;;;;;7.71;100.00;101631.94;5045126;28;20378;-78
2021/10/28 05:58:46;;;;;;;111.25;34.78;;;;;;;7.68;100.00;101627.00;5042980;28;20431;-76
2021/10/28 06:01:12;;;;;;;105.05;32.55;;;;;;;7.80;100.00;101627.84;5049885;28;20028;-77
2021/10/28 06:03:38;;;;;;;119.72;37.08;;;;;;;7.76;100.00;101619.53;5047147;28;20456;-77
2021/10/28 06:06:06;;;;;;;108.75;33.20;;;;;;;7.77;100.00;101620.34;5060311;28;20040;-76
2021/10/28 06:08:33;;;;;;;101.32;31.70;;;;;;;7.69;100.00;101623.50;5044553;28;20051;-76
2021/10/28 06:10:59;;;;;;;108.40;34.13;;;;;;;7.71;100.00;101620.81;5045661;28;20094;-79
2021/10/28 06:13:26;;;;;;;107.57;33.25;;;;;;;7.70;100.00;101609.66;5050653;28;20032;-76
2021/10/28 06:15:52;;;;;;;110.97;34.33;;;;;;;7.83;100.00;101611.28;5051109;28;20297;-78
2021/10/28 06:20:44;;;;;;;117.85;34.95;;;;;;;7.86;100.00;101605.91;5048057;28;20406;-76
2021/10/28 06:23:10;;;;;;;119.05;35.33;;;;;;;7.86;100.00;101605.91;5047545;28;20031;-77
2021/10/28 06:25:36;;;;;;;115.90;35.33;;;;;;;7.90;100.00;101605.53;5068853;28;20467;-76
2021/10/28 06:28:03;;;;;;;115.82;35.13;;;;;;;7.92;100.00;101598.50;5065088;28;20111;-78
2021/10/28 06:30:29;;;;;;;130.02;36.75;;;;;;;7.94;100.00;101596.59;5066090;28;20024;-79
2021/10/28 06:33:02;;;;;;;126.60;39.92;;;;;;;7.86;100.00;101596.38;5033329;28;20482;-77
2021/10/28 06:35:27;;;;;;;119.28;37.70;;;;;;;8.01;100.00;101598.72;5051771;28;20028;-78
2021/10/28 06:37:53;;;;;;;116.90;36.63;;;;;;;7.94;100.00;101600.97;5049798;28;20055;-77
2021/10/28 06:40:23;;;;;;;122.28;39.70;;;;;;;7.91;100.00;101603.78;5052100;28;20665;-79
2021/10/28 06:42:49;;;;;;;119.72;37.47;;;;;;;7.93;100.00;101607.91;5049953;28;20401;-76
2021/10/28 06:45:16;;;;;;;124.95;37.03;;;;;;;8.03;100.00;101604.59;5046213;28;20029;-76
2021/10/28 06:47:42;;;;;;;121.13;38.00;;;;;;;8.01;100.00;101603.91;5069605;28;20040;-78
2021/10/28 06:50:12;;;;;;;121.60;38.53;;;;;;;8.02;100.00;101613.28;5043308;28;20032;-76
2021/10/28 06:55:34;;;;;;;126.45;39.80;;;;;;;8.08;100.00;101615.38;5064019;28;20036;-78
2021/10/28 07:03:29;;;;;;;112.10;38.25;;;;;;;8.13;100.00;101614.06;5070068;28;20037;-76
2021/10/28 07:05:58;;;;;;;116.38;38.50;;;;;;;8.15;100.00;101616.53;5047115;28;20044;-78
2021/10/28 07:08:24;;;;;;;110.72;36.50;;;;;;;8.28;100.00;101616.41;5053786;28;20067;-78
2021/10/28 07:10:52;;;;;;;99.45;36.88;;;;;;;8.19;100.00;101607.59;5045728;28;20067;-78
2021/10/28 07:13:22;;;;;;;93.35;34.83;;;;;;;8.15;100.00;101606.22;5048554;28;20033;-77
2021/10/28 07:15:58;;;;;;;89.97;35.22;;;;;;;8.17;100.00;101619.81;5071259;28;20107;-77
2021/10/28 07:26:34;;;;;;;87.13;36.22;;;;;;;8.19;100.00;101607.59;5057263;28;20054;-78
2021/10/28 07:32:06;;;;;;;93.30;35.42;;;;;;;8.26;100.00;101603.59;5041325;28;20505;-77
2021/10/28 07:57:33;;;;;;;89.07;36.10;;;;;;;8.53;98.65;101594.63;5049909;28;20409;-77
2021/10/28 08:15:37;;;;;;;87.53;35.03;;;;;;;8.81;97.36;101589.81;5062935;28;20064;-77
2021/10/28 08:23:28;;;;;;;81.68;34.38;;;;;;;9.42;94.75;101568.38;5038684;28;20163;-76
2021/10/28 08:28:49;;;;;;;72.03;33.00;;;;;;;10.36;90.43;101570.69;5042055;28;20070;-76
2021/10/28 08:31:18;;;;;;;72.53;32.25;;;;;;;10.59;88.59;101569.47;5049845;28;20489;-76
2021/10/28 08:33:45;;;;;;;63.65;28.38;;;;;;;10.77;87.21;101568.78;5046978;28;20123;-76
2021/10/28 08:36:11;;;;;;;64.88;28.85;;;;;;;11.22;85.99;101562.94;5026404;28;20036;-77
2021/10/28 08:38:41;;;;;;;55.95;26.75;;;;;;;11.14;84.79;101570.63;5049100;28;20043;-77
2021/10/28 08:41:08;;;;;;;47.50;25.30;;;;;;;11.33;83.97;101567.97;5046398;28;20119;-78
2021/10/28 08:43:36;;;;;;;49.88;25.55;;;;;;;11.30;84.86;101566.47;5038651;28;20268;-74
2021/10/28 08:46:05;;;;;;;51.15;25.92;;;;;;;11.39;83.54;101561.38;5047582;28;20043;-76
2021/10/28 08:48:33;;;;;;;43.47;21.73;;;;;;;11.56;83.18;101560.63;5046843;28;20602;-76
2021/10/28 09:24:55;;;;;;;37.60;18.70;;;;;;;11.33;84.47;101530.78;5058647;28;20041;-77
2021/10/28 09:27:25;;;;;;;36.53;19.63;;;;;;;11.21;85.09;101532.75;5046227;28;20086;-76
2021/10/28 09:32:50;;;;;;;36.60;18.90;;;;;;;11.30;84.88;101524.94;5058087;28;20032;-76
2021/10/28 09:35:44;;;;;;;35.42;18.48;;;;;;;11.46;84.46;101519.09;5044338;28;20032;-76
2021/10/28 09:43:58;;;;;;;31.48;16.40;;;;;;;11.45;83.91;101507.09;5060794;28;20049;-76
2021/10/28 09:46:43;;;;;;;31.77;17.92;;;;;;;11.57;83.72;101504.31;5055855;28;20040;-76
2021/10/28 09:52:15;;;;;;;36.28;17.25;;;;;;;11.64;83.53;101500.97;5063333;28;20423;-77
2021/10/28 10:00:12;;;;;;;28.73;14.63;;;;;;;11.89;81.83;101496.03;5062123;28;20052;-79
2021/10/28 10:02:56;;;;;;;29.35;13.45;;;;;;;11.98;81.96;101492.59;5039883;28;20083;-76
2021/10/28 10:05:24;;;;;;;31.25;14.85;;;;;;;12.11;81.13;101493.97;5048245;28;20599;-77
2021/10/28 10:07:52;;;;;;;26.50;13.65;;;;;;;12.16;81.42;101495.16;5048369;28;20474;-78
2021/10/28 10:10:29;;;;;;;29.58;14.20;;;;;;;12.14;82.25;101491.91;5038005;28;20025;-78
2021/10/28 10:12:56;;;;;;;26.95;14.27;;;;;;;12.31;81.27;101486.84;5046081;28;20421;-77
2021/10/28 10:15:23;;;;;;;24.92;13.90;;;;;;;12.29;81.54;101493.97;5028783;28;20041;-76
2021/10/28 10:18:02;;;;;;;29.80;15.27;;;;;;;12.37;80.70;101489.66;5040993;28;20068;-77
2021/10/28 10:20:39;;;;;;;30.25;14.63;;;;;;;12.27;81.74;101488.94;5056223;28;20029;-77
2021/10/28 12:20:23;;;;;;;17.63;6.85;;;;;;;14.43;69.48;101299.91;5051115;28;20547;-77
2021/10/28 12:45:59;;;;;;;13.10;7.00;;;;;;;14.64;68.13;101273.31;5064116;28;20047;-76
2021/10/28 13:03:37;;;;;;;13.95;7.65;;;;;;;14.70;68.08;101272.59;5060321;28;20374;-76
2021/10/28 14:23:51;;;;;;;13.25;8.40;;;;;;;15.11;67.22;101160.88;5057346;28;20428;-79
2021/10/28 15:34:59;;;;;;;18.50;8.68;;;;;;;14.08;71.84;101132.53;5021599;28;20049;-75
2021/10/28 15:37:43;;;;;;;17.67;8.27;;;;;;;13.95;72.02;101128.66;5030585;28;20029;-76
2021/10/28 15:40:16;;;;;;;18.08;9.38;;;;;;;13.90;72.37;101128.38;5046100;28;20032;-76
2021/10/28 15:49:00;;;;;;;15.43;9.02;;;;;;;13.83;72.94;101141.25;5065281;28;20048;-76
2021/10/28 16:23:11;;;;;;;22.23;11.38;;;;;;;13.01;76.22;101117.97;5064880;28;20047;-75
2021/10/28 16:25:37;;;;;;;22.23;10.15;;;;;;;12.93;76.51;101123.19;5068034;28;20028;-76
2021/10/28 16:28:03;;;;;;;19.63;11.10;;;;;;;12.91;76.72;101124.34;5062364;28;20027;-76
2021/10/28 16:30:29;;;;;;;19.30;10.85;;;;;;;12.85;76.71;101124.00;5040120;28;20495;-75
2021/10/28 16:32:54;;;;;;;19.33;11.13;;;;;;;12.81;77.12;101121.91;5046052;28;20070;-75
2021/10/28 16:35:20;;;;;;;20.65;11.57;;;;;;;12.73;77.25;101120.09;5030465;28;20405;-77
2021/10/28 16:37:46;;;;;;;21.85;11.77;;;;;;;12.82;76.90;101116.50;5028810;28;20048;-75
2021/10/28 16:40:11;;;;;;;21.70;11.95;;;;;;;12.69;77.37;101117.97;5041459;28;20033;-75
2021/10/28 16:42:37;;;;;;;21.90;12.00;;;;;;;12.69;77.61;101117.97;5043267;28;20043;-75
2021/10/28 16:45:08;;;;;;;24.58;12.13;;;;;;;12.55;78.17;101120.25;5043889;28;20024;-78
2021/10/28 16:47:35;;;;;;;22.80;11.75;;;;;;;12.55;77.99;101119.44;5042312;28;20027;-75
2021/10/28 16:50:00;;;;;;;24.50;13.20;;;;;;;12.39;78.62;101126.22;5057693;28;20040;-77
2021/10/28 16:52:26;;;;;;;19.33;11.50;;;;;;;12.50;78.16;101132.09;5057284;28;20034;-75
2021/10/28 16:54:51;;;;;;;24.25;12.18;;;;;;;12.36;78.35;101125.75;5057030;28;20480;-76
2021/10/28 16:57:17;;;;;;;21.95;12.80;;;;;;;12.26;78.91;101139.72;5039364;28;20062;-76
2021/10/28 16:59:42;;;;;;;21.67;12.70;;;;;;;12.30;78.77;101131.56;5063363;28;20025;-76
2021/10/28 17:02:08;;;;;;;22.00;12.60;;;;;;;12.24;78.95;101131.25;5063696;28;20044;-75
2021/10/28 17:04:34;;;;;;;23.67;11.85;;;;;;;12.07;79.33;101116.56;5057005;28;20504;-75
2021/10/28 17:06:59;;;;;;;21.75;12.52;;;;;;;12.16;79.10;101131.22;5051089;28;20492;-77
2021/10/28 17:09:25;;;;;;;24.33;12.38;;;;;;;12.13;79.23;101120.31;5046564;28;20496;-76
2021/10/28 17:11:51;;;;;;;23.52;13.25;;;;;;;12.12;79.22;101131.69;5043704;28;20039;-75
2021/10/28 17:14:16;;;;;;;26.75;14.55;;;;;;;11.93;79.94;101120.59;5068844;28;20037;-74
2021/10/28 17:16:46;;;;;;;28.98;14.20;;;;;;;11.96;79.99;101122.03;5042045;28;20556;-75
2021/10/28 17:19:13;;;;;;;25.88;13.27;;;;;;;11.86;80.17;101124.75;5043610;28;20546;-75
2021/10/28 17:21:40;;;;;;;29.02;13.55;;;;;;;11.86;79.90;101127.34;5065163;28;20443;-77
2021/10/28 17:24:20;;;;;;;26.40;13.52;;;;;;;11.75;80.21;101127.63;5032183;28;20036;-75
2021/10/28 17:26:45;;;;;;;31.73;14.45;;;;;;;11.69;80.53;101131.66;5049245;28;20055;-74
2021/10/28 17:29:11;;;;;;;28.25;14.73;;;;;;;11.62;80.34;101133.22;5056570;28;20506;-75
2021/10/28 17:31:37;;;;;;;27.45;14.15;;;;;;;11.68;80.34;101140.44;5074828;28;20032;-76
2021/10/28 17:34:04;;;;;;;24.92;14.05;;;;;;;11.53;80.80;101135.00;5033526;28;20753;-76
2021/10/28 17:36:29;;;;;;;27.02;14.52;;;;;;;11.54;80.95;101135.78;5045782;28;20455;-78
2021/10/28 17:38:55;;;;;;;25.15;13.77;;;;;;;11.53;80.89;101142.78;5034275;28;20132;-75
2021/10/28 17:41:26;;;;;;;25.55;14.27;;;;;;;11.46;81.15;101142.56;5067848;28;20570;-76
2021/10/28 17:43:55;;;;;;;28.33;14.35;;;;;;;11.42;80.84;101138.66;5045845;28;20374;-83
2021/10/28 17:46:27;;;;;;;26.40;14.77;;;;;;;11.38;81.09;101133.94;5045323;28;20040;-76
2021/10/28 17:48:52;;;;;;;26.58;15.45;;;;;;;11.22;81.53;101132.03;5045905;28;20070;-75
2021/10/28 17:51:18;;;;;;;35.85;16.70;;;;;;;11.31;81.11;101131.13;5067059;28;20385;-75
2021/10/28 17:53:47;;;;;;;31.65;16.50;;;;;;;11.18;81.67;101122.91;5053554;28;20051;-75
2021/10/28 17:56:15;;;;;;;30.67;17.02;;;;;;;11.13;81.65;101122.56;5050482;28;20538;-75
2021/10/28 17:58:41;;;;;;;29.17;16.30;;;;;;;11.06;81.59;101124.94;5046278;28;20024;-76
2021/10/28 18:01:06;;;;;;;29.90;16.90;;;;;;;11.00;81.80;101128.97;5055186;28;20037;-76
2021/10/28 18:03:32;;;;;;;35.05;16.58;;;;;;;10.95;82.30;101126.00;5026832;28;20147;-75
2021/10/28 18:05:58;;;;;;;31.58;16.75;;;;;;;10.94;82.31;101133.94;5066797;28;20025;-79
2021/10/28 18:08:23;;;;;;;35.35;17.08;;;;;;;10.81;82.54;101121.34;5033343;28;20389;-77
2021/10/28 18:10:50;;;;;;;33.42;17.35;;;;;;;10.80;82.36;101128.31;5070148;28;20075;-76
2021/10/28 18:13:17;;;;;;;31.33;17.65;;;;;;;10.79;82.41;101131.84;5042072;28;20755;-76
2021/10/28 18:15:43;;;;;;;34.25;17.35;;;;;;;10.72;82.54;101133.44;5059064;28;20052;-77
2021/10/28 18:18:08;;;;;;;32.60;16.95;;;;;;;10.69;82.59;101134.53;5054233;28;20485;-76
2021/10/28 18:20:36;;;;;;;34.35;17.45;;;;;;;10.76;82.05;101128.78;5053064;28;20036;-75
2021/10/28 18:23:02;;;;;;;34.80;18.77;;;;;;;10.64;82.29;101122.97;5036640;28;20397;-76
2021/10/28 18:25:28;;;;;;;35.00;17.83;;;;;;;10.54;82.67;101122.25;5053556;28;20028;-75
2021/10/28 18:27:56;;;;;;;34.47;18.73;;;;;;;10.50;82.95;101121.72;5045542;28;20075;-77
2021/10/28 18:30:23;;;;;;;35.40;17.83;;;;;;;10.48;82.98;101114.09;5049020;28;20042;-75
2021/10/28 18:32:49;;;;;;;34.05;18.85;;;;;;;10.45;83.44;101124.75;5065156;28;20074;-75
2021/10/28 18:35:15;;;;;;;35.30;18.20;;;;;;;10.42;83.00;101122.47;5063016;28;20066;-75
2021/10/28 18:37:42;;;;;;;37.92;19.27;;;;;;;10.37;83.25;101119.47;5044244;28;20307;-75
2021/10/28 18:40:08;;;;;;;35.45;19.33;;;;;;;10.26;83.73;101117.06;5048416;28;20051;-75
2021/10/28 18:42:34;;;;;;;38.28;20.13;;;;;;;10.22;83.70;101126.91;5060979;28;20465;-75
2021/10/28 18:45:00;;;;;;;39.72;19.58;;;;;;;10.20;83.76;101107.28;5068162;28;20043;-76
2021/10/28 18:47:25;;;;;;;35.15;19.38;;;;;;;10.15;83.85;101115.47;5070994;28;20577;-77
2021/10/28 18:49:52;;;;;;;40.17;19.92;;;;;;;10.16;83.93;101106.75;5034041;28;20033;-78
2021/10/28 18:52:17;;;;;;;36.63;19.45;;;;;;;10.10;83.82;101109.94;5070150;28;20025;-77
2021/10/28 18:54:45;;;;;;;37.95;20.70;;;;;;;10.13;83.69;101113.06;5047929;28;20032;-75
2021/10/28 18:57:12;;;;;;;39.55;20.08;;;;;;;10.06;84.15;101112.00;5072544;28;20135;-76
2021/10/28 18:59:40;;;;;;;36.20;19.40;;;;;;;10.11;83.81;101114.97;5051351;28;20493;-75
2021/10/28 19:02:06;;;;;;;34.58;18.02;;;;;;;10.06;84.00;101109.41;5044515;28;20040;-75
2021/10/28 19:04:31;;;;;;;41.15;19.92;;;;;;;9.93;84.69;101101.16;5058924;28;20056;-76
2021/10/28 19:06:57;;;;;;;41.33;21.42;;;;;;;9.96;84.43;101100.06;5027829;28;20041;-75
2021/10/28 19:09:23;;;;;;;40.20;18.67;;;;;;;9.98;84.55;101093.75;5033045;28;20029;-75
2021/10/28 19:11:49;;;;;;;40.33;19.83;;;;;;;9.89;84.79;101090.28;5065428;28;20086;-75
2021/10/28 19:14:15;;;;;;;38.47;18.90;;;;;;;9.90;84.68;101083.31;5045888;28;20115;-77
2021/10/28 19:16:40;;;;;;;39.17;19.27;;;;;;;9.87;85.02;101081.84;5059182;28;20033;-79
2021/10/28 19:19:07;;;;;;;41.72;20.45;;;;;;;9.83;85.28;101079.66;5048156;28;20501;-77
2021/10/28 19:21:32;;;;;;;41.15;20.73;;;;;;;9.76;85.41;101069.09;5041097;28;20024;-76
2021/10/28 19:23:58;;;;;;;41.28;22.15;;;;;;;9.72;85.98;101076.31;5042569;28;20036;-80
2021/10/28 19:26:25;;;;;;;39.90;21.45;;;;;;;9.69;85.80;101075.78;5031258;28;20039;-74
2021/10/28 19:28:51;;;;;;;46.30;23.10;;;;;;;9.65;86.00;101084.81;5066805;28;20116;-78
2021/10/28 19:31:29;;;;;;;50.97;22.95;;;;;;;9.65;85.89;101082.22;5039425;28;20510;-76
2021/10/28 19:33:58;;;;;;;47.78;23.73;;;;;;;9.62;85.82;101080.72;5043159;28;20072;-75
2021/10/28 19:36:36;;;;;;;50.15;22.08;;;;;;;9.58;85.90;101079.38;5028948;28;20016;-75
2021/10/28 19:47:07;;;;;;;45.17;23.10;;;;;;;9.39;86.39;101067.31;5064301;28;20504;-76
2021/10/28 19:49:33;;;;;;;43.25;22.33;;;;;;;9.31;86.85;101072.38;5045170;28;20020;-78
2021/10/28 19:52:02;;;;;;;37.63;21.70;;;;;;;9.30;86.43;101068.97;5064527;28;20086;-75
2021/10/28 19:54:27;;;;;;;41.25;21.75;;;;;;;9.23;86.93;101070.50;5063061;28;20025;-76
2021/10/28 19:56:54;;;;;;;44.25;22.35;;;;;;;9.23;86.72;101067.09;5062661;28;20055;-75
2021/10/28 19:59:19;;;;;;;39.80;21.92;;;;;;;9.26;86.41;101059.84;5066312;28;20488;-76
2021/10/28 20:01:55;;;;;;;42.42;21.90;;;;;;;9.19;86.92;101066.53;5043496;28;20051;-78